Corbett, OR

2:53 AM PST on December 18, 2014 (GMT -0800)
Forest Hill | Change Station
CLOSE
Current Station
Personal Weather Station
Location: Washougal, WA
Elevation: 525 ft
Nearby Weather Stations
Active Advisory: Special Statement

Elev 525 ft 45.57 °N, 122.28 °W | Updated 1 second ago

Overcast
Overcast
41.3 °F
Feels Like 37 °F
N
6.0
Wind Variable Wind from ENE
Gusts 8.0 mph

Today
High -- | Low -- °F
--% Chance of Precip.
Yesterday
High -- | Low -- °F
Precip. -- in
7:44 AM 4:27 PM
Waning Crescent, 15% visible
Pressure 29.98 in
Visibility 9.0 miles
Clouds Scattered Clouds 2500 ft
Overcast 3400 ft
Windchill 37 °F
Dew Point 39 °F
Humidity 92%
Rainfall 0.05 in
Snow Depth Not available.
UV 0 out of 12
Pollen 1.30 out of 12
Air Quality Not available.
Flu Activity Not available.
METAR KTTD 180953Z AUTO 09011KT 9SM SCT025 OVC034 06/03 A2998 RMK AO2 RAB11E23 SLP152 P0000 T00610033

More Conditions Fewer Conditions

Pressure 29.98 in
Visibility 9.0 miles
Clouds Scattered Clouds 2500 ft
Overcast 3400 ft
Windchill 37 °F
Dew Point 39 °F
Humidity 92%
Rainfall 0.05 in
Snow Depth Not available.
UV 0 out of 12
Pollen 1.30 out of 12
Air Quality Not available.
Flu Activity Not available.
METAR KTTD 180953Z AUTO 09011KT 9SM SCT025 OVC034 06/03 A2998 RMK AO2 RAB11E23 SLP152 P0000 T00610033

More Conditions Fewer Conditions

10-Day Weather Forecast

Almanac

Astronomy

Dec. 18, 2014 Rise Set
Actual Time
Civil Twilight
Nautical Twilight
Astronomical Twilight
Moon
Length of Visible Light
Length of Day
Tomorrow will be .
, % of the Moon is Illuminated

Today's Extremes

State Highs State Lows

Community

WunderPhotos

Upload Photos

1,778,917 photos uploaded!

WunderBlogs® & News

Nearby

Air Quality

  Air Quality AQ Index Pollutant
Not available.

Snow Depth

Station Depth Elevation

Earthquake Activity

City Distance Mag. Time & Date
Minimum magnitude displayed is 2.5.

Coastal Water Temperatures

Place Temperature

Nearby Weather Stations